createdAt,value
2023-11-12T00:02:26.336Z,100198.28
2023-11-12T00:06:34.504Z,100197.53
2023-11-12T00:10:42.535Z,100198.06
2023-11-12T00:14:53.504Z,100212.69
2023-11-12T00:18:55.885Z,100209.16
2023-11-12T00:23:03.613Z,100187.53
2023-11-12T00:27:12.595Z,100192.56
2023-11-12T00:31:14.205Z,100188.25
2023-11-12T01:41:05.520Z,100182.50
2023-11-12T01:45:20.527Z,100174.56
2023-11-12T01:49:28.718Z,100161.28
2023-11-12T01:53:32.125Z,100161.16
2023-11-12T01:57:41.763Z,100178.22
2023-11-12T02:01:50.646Z,100153.84
2023-11-12T02:05:58.729Z,100177.75
2023-11-12T02:10:10.232Z,100176.09
2023-11-12T02:14:18.642Z,100178.81
2023-11-12T02:18:26.625Z,100173.28
2023-11-12T02:27:37.573Z,100158.84
2023-11-12T02:31:52.546Z,100178.22
2023-11-12T02:36:03.543Z,100167.72
2023-11-12T02:40:19.741Z,100180.19
2023-11-12T02:44:28.184Z,100175.41
2023-11-12T02:49:07.509Z,100177.28
2023-11-12T02:53:17.595Z,100166.69
2023-11-12T02:57:22.496Z,100166.69
2023-11-12T03:01:30.580Z,100184.91
2023-11-12T03:05:45.525Z,100134.63
2023-11-12T03:09:48.985Z,100174.34
2023-11-12T03:13:59.501Z,100146.16
2023-11-12T03:18:07.515Z,100166.22
2023-11-12T03:22:16.557Z,100158.28
2023-11-12T03:26:24.566Z,100169.66
2023-11-12T03:30:32.596Z,100150.00
2023-11-12T03:34:34.259Z,100139.69
2023-11-12T03:52:09.402Z,100150.84
2023-11-12T03:56:11.160Z,100134.88
2023-11-12T04:00:21.480Z,100119.41
2023-11-12T04:04:36.421Z,100136.31
2023-11-12T04:08:51.261Z,100146.09
2023-11-12T04:13:00.527Z,100134.09
2023-11-12T04:17:15.283Z,100125.22
2023-11-12T04:21:30.378Z,100128.56
2023-11-12T04:25:38.177Z,100128.13
2023-11-12T04:29:46.392Z,100138.25
2023-11-12T04:33:54.399Z,100140.88
2023-11-12T04:38:02.215Z,100132.31
2023-11-12T04:42:10.783Z,100136.50
2023-11-12T04:46:20.392Z,100135.97
2023-11-12T04:50:28.510Z,100139.31
2023-11-12T04:54:52.302Z,100151.84
2023-11-12T04:59:00.820Z,100145.66
2023-11-12T05:03:12.251Z,100124.63
2023-11-12T05:07:14.378Z,100137.53
2023-11-12T05:11:22.209Z,100133.59
2023-11-12T05:15:30.309Z,100143.13
2023-11-12T05:19:31.994Z,100162.97
2023-11-12T05:23:41.235Z,100141.66
2023-11-12T05:27:50.277Z,100145.34
2023-11-12T05:32:13.348Z,100126.63
2023-11-12T05:36:28.435Z,100150.75
2023-11-12T05:40:36.368Z,100162.13
2023-11-12T05:44:44.350Z,100169.56
2023-11-12T05:48:46.011Z,100144.38
2023-11-12T05:57:20.327Z,100162.44
2023-11-12T06:01:22.180Z,100160.78
2023-11-12T06:05:30.290Z,100135.91
2023-11-12T06:09:39.326Z,100170.28
2023-11-12T06:13:54.228Z,100174.97
2023-11-12T06:17:56.247Z,100181.13
2023-11-12T06:22:11.400Z,100153.94
2023-11-12T06:26:20.231Z,100189.69
2023-11-12T06:30:21.984Z,100184.75
2023-11-12T06:34:30.231Z,100158.75
2023-11-12T06:38:38.330Z,100166.97
2023-11-12T06:42:53.210Z,100184.84
2023-11-12T06:46:54.849Z,100164.00
2023-11-12T06:51:54.313Z,100200.97
2023-11-12T06:56:16.276Z,100196.56
2023-11-12T07:00:24.912Z,100205.44
2023-11-12T07:04:33.429Z,100207.47
2023-11-12T07:08:35.101Z,100210.47
2023-11-12T07:12:43.279Z,100203.34
2023-11-12T07:16:58.239Z,100213.41
2023-11-12T07:20:59.864Z,100210.63
2023-11-12T07:25:08.330Z,100229.03
2023-11-12T07:29:23.352Z,100235.63
2023-11-12T07:33:24.981Z,100217.47
2023-11-12T07:37:33.211Z,100236.22
2023-11-12T07:41:49.259Z,100243.47
2023-11-12T07:45:50.818Z,100234.91
2023-11-12T07:49:59.281Z,100253.09
2023-11-12T07:54:07.225Z,100247.50
2023-11-12T07:58:15.242Z,100241.97
2023-11-12T08:02:17.065Z,100248.78
2023-11-12T08:06:43.223Z,100245.28
2023-11-12T08:10:59.402Z,100252.28
2023-11-12T08:15:01.187Z,100259.72
2023-11-12T08:19:09.306Z,100254.94
2023-11-12T08:23:24.333Z,100259.72
2023-11-12T08:39:00.325Z,100283.91
2023-11-12T08:43:10.386Z,100273.88
2023-11-12T08:47:18.288Z,100266.50
2023-11-12T08:51:26.338Z,100271.72
2023-11-12T08:55:34.246Z,100273.31
2023-11-12T08:59:37.422Z,100274.22
2023-11-12T09:40:52.234Z,100279.75
2023-11-12T09:45:15.512Z,100277.03
2023-11-12T09:49:30.205Z,100284.41
2023-11-12T09:54:05.223Z,100288.25
2023-11-12T09:58:20.304Z,100272.06
2023-11-12T10:02:29.293Z,100262.41
2023-11-12T10:06:38.398Z,100272.34
2023-11-12T10:10:49.200Z,100242.50
2023-11-12T10:15:10.294Z,100252.69
2023-11-12T10:19:21.266Z,100263.03
2023-11-12T10:27:34.245Z,100264.59
2023-11-12T10:31:45.240Z,100265.09
2023-11-12T10:35:47.917Z,100262.06
2023-11-12T10:39:57.274Z,100252.41
2023-11-12T10:44:06.293Z,100242.72
2023-11-12T10:48:11.356Z,100259.88
2023-11-12T10:52:37.293Z,100253.28
2023-11-12T10:56:46.420Z,100253.63
2023-11-12T11:01:02.296Z,100264.47
2023-11-12T11:05:06.165Z,100247.56
2023-11-12T11:09:22.372Z,100265.06
2023-11-12T11:13:31.473Z,100256.56
2023-11-12T11:17:53.324Z,100268.78
2023-11-12T11:22:29.338Z,100267.94
2023-11-12T11:26:48.435Z,100262.00
2023-11-12T11:31:21.295Z,100256.69
2023-11-12T11:35:32.326Z,100232.00
2023-11-12T11:39:54.315Z,100266.19
2023-11-12T11:44:41.322Z,100267.72
2023-11-12T11:48:49.092Z,100272.97
2023-11-12T11:52:59.222Z,100273.44
2023-11-12T11:57:09.362Z,100280.81
2023-11-12T12:01:10.841Z,100281.06
2023-11-12T12:05:22.441Z,100287.09
2023-11-12T12:09:25.148Z,100294.34
2023-11-12T12:13:41.535Z,100304.09
2023-11-12T12:17:51.263Z,100303.69
2023-11-12T12:21:53.429Z,100289.38
2023-11-12T12:26:02.249Z,100276.09
2023-11-12T12:30:10.260Z,100298.22
2023-11-12T12:34:24.218Z,100294.91
2023-11-12T12:38:39.304Z,100292.44
2023-11-12T12:42:51.279Z,100278.06
2023-11-12T12:47:14.236Z,100277.78
2023-11-12T12:51:29.521Z,100283.22
2023-11-12T12:55:31.550Z,100277.69
2023-11-12T12:59:44.217Z,100259.50
2023-11-12T13:03:53.311Z,100260.59
2023-11-12T13:08:01.277Z,100258.66
2023-11-12T13:12:12.309Z,100241.47
2023-11-12T13:16:20.963Z,100258.41
2023-11-12T13:20:36.263Z,100237.34
2023-11-12T13:24:46.282Z,100228.63
2023-11-12T13:28:55.129Z,100224.75
2023-11-12T13:33:03.290Z,100223.34
2023-11-12T13:37:12.262Z,100231.31
2023-11-12T13:41:30.256Z,100231.81
2023-11-12T13:45:32.294Z,100210.16
2023-11-12T13:49:42.274Z,100243.16
2023-11-12T13:53:51.534Z,100247.03
2023-11-12T13:58:06.368Z,100250.50
2023-11-12T14:02:16.255Z,100253.53
2023-11-12T14:06:25.263Z,100278.19
2023-11-12T14:10:50.255Z,100250.28
2023-11-12T14:15:08.268Z,100280.81
2023-11-12T14:19:13.437Z,100274.03
2023-11-12T14:23:21.191Z,100271.66
2023-11-12T14:27:29.346Z,100283.44
2023-11-12T14:31:44.255Z,100272.47
2023-11-12T14:35:53.297Z,100295.78
2023-11-12T14:40:11.040Z,100283.41
2023-11-12T14:44:19.240Z,100293.41
2023-11-12T14:48:20.997Z,100278.38
2023-11-12T14:56:49.191Z,100312.06
2023-11-12T15:00:58.301Z,100324.53
2023-11-12T15:05:00.051Z,100326.84
2023-11-12T15:09:08.246Z,100330.00
2023-11-12T15:13:23.314Z,100301.66
2023-11-12T15:17:33.839Z,100323.16
2023-11-12T15:21:42.042Z,100315.19
2023-11-12T15:25:50.334Z,100327.25
2023-11-12T15:29:58.259Z,100326.94
2023-11-12T15:34:03.141Z,100320.53
2023-11-12T15:38:19.295Z,100328.22
2023-11-12T15:42:41.403Z,100335.22
2023-11-12T15:46:52.506Z,100331.91
2023-11-12T15:51:07.304Z,100314.19
2023-11-12T15:55:25.453Z,100339.13
2023-11-12T15:59:33.475Z,100342.13
2023-11-12T16:03:44.466Z,100327.75
2023-11-12T16:07:46.356Z,100341.25
2023-11-12T16:11:54.337Z,100357.13
2023-11-12T16:16:09.365Z,100358.31
2023-11-12T16:20:13.392Z,100363.38
2023-11-12T16:24:25.356Z,100369.81
2023-11-12T16:28:40.254Z,100384.28
2023-11-12T16:32:49.312Z,100382.72
2023-11-12T16:37:04.396Z,100369.81
2023-11-12T16:41:26.275Z,100348.34
2023-11-12T16:45:43.227Z,100371.13
2023-11-12T16:49:45.263Z,100368.16
2023-11-12T16:53:53.256Z,100359.09
2023-11-12T16:58:02.375Z,100377.13
2023-11-12T17:02:11.339Z,100366.50
2023-11-12T17:06:19.263Z,100368.28
2023-11-12T17:10:28.257Z,100375.94
2023-11-12T17:14:43.507Z,100373.41
2023-11-12T17:19:05.492Z,100375.91
2023-11-12T17:23:20.225Z,100374.25
2023-11-12T17:27:23.654Z,100346.81
2023-11-12T17:31:32.310Z,100352.53
2023-11-12T17:35:40.270Z,100362.56
2023-11-12T17:39:55.253Z,100370.22
2023-11-12T17:44:04.281Z,100347.63
2023-11-12T17:48:06.159Z,100359.34
2023-11-12T17:56:41.322Z,100407.78
2023-11-12T18:00:51.024Z,100406.84
2023-11-12T18:04:53.914Z,100367.88
2023-11-12T18:09:02.507Z,100394.28
2023-11-12T18:13:22.305Z,100407.06
2023-11-12T18:18:05.392Z,100427.47
2023-11-12T18:22:28.298Z,100434.28
2023-11-12T18:26:37.438Z,100430.09
2023-11-12T18:30:48.676Z,100426.16
2023-11-12T18:34:58.284Z,100411.59
2023-11-12T18:39:13.438Z,100409.69
2023-11-12T18:43:23.257Z,100429.75
2023-11-12T18:47:25.027Z,100429.13
2023-11-12T18:51:33.359Z,100416.50
2023-11-12T18:55:41.433Z,100394.44
2023-11-12T19:00:03.486Z,100409.47
2023-11-12T19:04:25.309Z,100431.75
2023-11-12T19:08:33.256Z,100440.84
2023-11-12T19:12:41.310Z,100438.19
2023-11-12T19:16:49.493Z,100444.63
2023-11-12T19:20:58.282Z,100425.38
2023-11-12T19:25:07.317Z,100422.72
2023-11-12T19:29:22.279Z,100430.69
2023-11-12T19:33:30.251Z,100406.47
2023-11-12T19:37:52.305Z,100382.69
2023-11-12T19:42:00.669Z,100402.03
2023-11-12T19:46:09.401Z,100383.00
2023-11-12T19:50:12.573Z,100417.81
2023-11-12T19:54:28.286Z,100417.69
2023-11-12T19:58:29.890Z,100435.00
2023-11-12T20:02:52.137Z,100448.44
2023-11-12T20:06:56.667Z,100462.28
2023-11-12T20:11:08.295Z,100440.53
2023-11-12T20:15:17.295Z,100385.94
2023-11-12T20:19:26.293Z,100445.16
2023-11-12T20:23:34.716Z,100424.25
2023-11-12T20:27:43.405Z,100441.22
2023-11-12T20:31:45.174Z,100441.88
2023-11-12T20:35:54.307Z,100440.75
2023-11-12T20:40:15.472Z,100443.97
2023-11-12T20:44:17.303Z,100428.72
2023-11-12T20:48:32.288Z,100475.13
2023-11-12T20:52:41.276Z,100486.03
2023-11-12T20:56:42.939Z,100453.16
2023-11-12T21:00:51.238Z,100458.47
2023-11-12T21:05:07.378Z,100421.88
2023-11-12T21:09:15.285Z,100465.50
2023-11-12T21:13:23.253Z,100444.16
2023-11-12T21:17:24.847Z,100466.66
2023-11-12T21:21:33.296Z,100467.16
2023-11-12T21:25:41.294Z,100436.91
2023-11-12T21:29:56.339Z,100449.38
2023-11-12T21:34:04.355Z,100432.53
2023-11-12T21:38:32.283Z,100423.63
2023-11-12T21:42:48.594Z,100417.47
2023-11-12T21:46:59.559Z,100425.63
2023-11-12T21:51:07.537Z,100438.78
2023-11-12T21:55:22.339Z,100440.28
2023-11-12T21:59:38.232Z,100444.63
2023-11-12T22:03:46.415Z,100437.91
2023-11-12T22:12:34.424Z,100451.53
2023-11-12T22:16:46.289Z,100453.06
2023-11-12T22:20:54.239Z,100464.78
2023-11-12T22:25:09.095Z,100460.16
2023-11-12T22:29:15.520Z,100472.28
2023-11-12T22:33:24.330Z,100471.19
2023-11-12T22:37:32.256Z,100487.59
2023-11-12T22:41:47.319Z,100496.59
2023-11-12T22:45:55.258Z,100490.94
2023-11-12T22:50:03.278Z,100499.31
2023-11-12T22:54:12.491Z,100481.78
2023-11-12T23:02:53.402Z,100491.84
2023-11-12T23:07:11.364Z,100502.25
2023-11-12T23:11:14.367Z,100493.06
2023-11-12T23:15:22.260Z,100481.03
2023-11-12T23:19:31.315Z,100472.84
2023-11-12T23:23:33.068Z,100453.88
2023-11-12T23:27:41.300Z,100449.63
2023-11-12T23:31:49.440Z,100450.91
2023-11-12T23:36:04.277Z,100455.81
2023-11-12T23:40:22.482Z,100427.38
2023-11-12T23:44:30.345Z,100387.75
2023-11-12T23:48:35.037Z,100397.78
2023-11-12T23:52:50.251Z,100412.00
2023-11-12T23:57:05.229Z,100376.66
